createdAt,value
2018-01-12T00:00:30.936Z,18.80
2018-01-12T00:02:58.156Z,19.47
2018-01-12T00:05:25.372Z,19.60
2018-01-12T00:07:52.621Z,19.93
2018-01-12T00:10:19.846Z,20.87
2018-01-12T00:12:47.072Z,17.67
2018-01-12T00:15:14.281Z,20.47
2018-01-12T00:17:41.505Z,20.37
2018-01-12T00:20:08.740Z,20.70
2018-01-12T00:22:35.972Z,22.73
2018-01-12T00:25:03.233Z,20.50
2018-01-12T00:27:30.452Z,21.70
2018-01-12T00:29:57.668Z,22.00
2018-01-12T00:32:24.901Z,21.60
2018-01-12T00:34:52.203Z,20.20
2018-01-12T00:37:19.417Z,21.40
2018-01-12T00:39:46.462Z,20.87
2018-01-12T00:42:13.516Z,19.43
2018-01-12T00:44:40.543Z,22.27
2018-01-12T00:47:07.585Z,21.87
2018-01-12T00:49:34.629Z,23.57
2018-01-12T00:52:01.667Z,24.70
2018-01-12T00:54:28.710Z,22.37
2018-01-12T00:56:55.773Z,23.80
2018-01-12T00:59:22.808Z,23.30
2018-01-12T01:01:50.025Z,21.20
2018-01-12T01:04:17.268Z,21.63
2018-01-12T01:06:44.501Z,22.07
2018-01-12T01:09:11.732Z,22.73
2018-01-12T01:11:38.953Z,20.50
2018-01-12T01:14:06.182Z,22.40
2018-01-12T01:16:33.405Z,19.97
2018-01-12T01:19:00.643Z,18.80
2018-01-12T01:21:27.860Z,20.63
2018-01-12T01:23:55.096Z,20.07
2018-01-12T01:26:22.309Z,20.40
2018-01-12T01:28:49.532Z,22.37
2018-01-12T01:31:16.837Z,19.03
2018-01-12T01:33:44.065Z,20.20
2018-01-12T01:36:11.284Z,18.77
2018-01-12T01:38:38.508Z,17.23
2018-01-12T01:41:05.757Z,18.80
2018-01-12T01:43:32.989Z,19.47
2018-01-12T01:46:00.205Z,16.97
2018-01-12T01:48:32.876Z,18.70
2018-01-12T01:51:00.312Z,19.10
2018-01-12T01:53:27.793Z,20.00
2018-01-12T01:55:55.021Z,19.73
2018-01-12T01:58:22.243Z,20.40
2018-01-12T02:00:49.462Z,20.23
2018-01-12T02:03:16.692Z,21.77
2018-01-12T02:05:43.916Z,20.37
2018-01-12T02:08:11.695Z,20.70
2018-01-12T02:10:38.913Z,20.20
2018-01-12T02:13:06.137Z,19.47
2018-01-12T02:15:33.373Z,18.87
2018-01-12T02:18:00.813Z,19.57
2018-01-12T02:20:28.366Z,18.80
2018-01-12T02:22:55.600Z,18.87
2018-01-12T02:25:22.814Z,18.97
2018-01-12T02:27:50.045Z,18.80
2018-01-12T02:30:17.273Z,18.53
2018-01-12T02:32:44.509Z,18.83
2018-01-12T02:35:11.737Z,19.90
2018-01-12T02:37:38.961Z,20.63
2018-01-12T02:40:11.104Z,18.17
2018-01-12T02:42:38.320Z,19.93
2018-01-12T02:45:09.877Z,19.50
2018-01-12T02:47:37.095Z,19.83
2018-01-12T02:50:06.313Z,20.00
2018-01-12T02:52:35.073Z,21.47
2018-01-12T02:55:02.293Z,22.37
2018-01-12T02:57:29.525Z,20.50
2018-01-12T02:59:56.776Z,20.80
2018-01-12T03:02:24.004Z,22.97
2018-01-12T03:04:51.229Z,23.23
2018-01-12T03:07:18.441Z,21.77
2018-01-12T03:09:45.678Z,22.47
2018-01-12T03:12:12.890Z,21.27
2018-01-12T03:14:40.120Z,23.17
2018-01-12T03:17:08.189Z,21.60
2018-01-12T03:19:35.429Z,22.10
2018-01-12T03:22:02.648Z,22.40
2018-01-12T03:24:29.866Z,22.23
2018-01-12T03:26:57.611Z,22.63
2018-01-12T03:29:24.867Z,23.37
2018-01-12T03:31:52.092Z,22.73
2018-01-12T03:34:19.312Z,21.70
2018-01-12T03:36:46.544Z,20.83
2018-01-12T03:39:13.779Z,21.93
2018-01-12T03:41:41.001Z,23.00
2018-01-12T03:44:08.219Z,22.93
2018-01-12T03:46:35.449Z,22.20
2018-01-12T03:49:02.673Z,23.10
2018-01-12T03:51:29.717Z,23.37
2018-01-12T03:53:56.937Z,23.60
2018-01-12T03:56:24.159Z,22.53
2018-01-12T03:58:51.373Z,23.37
2018-01-12T04:01:18.605Z,23.00
2018-01-12T04:03:45.828Z,24.30
2018-01-12T04:06:13.036Z,21.37
2018-01-12T04:08:40.274Z,21.50
2018-01-12T04:11:07.681Z,21.17
2018-01-12T04:13:34.901Z,21.03
2018-01-12T04:16:02.128Z,21.63
2018-01-12T04:18:29.167Z,19.70
2018-01-12T04:20:56.600Z,21.33
2018-01-12T04:23:23.829Z,22.37
2018-01-12T04:25:51.041Z,19.23
2018-01-12T04:28:18.256Z,20.83
2018-01-12T04:30:45.469Z,21.40
2018-01-12T04:33:12.911Z,23.10
2018-01-12T04:35:40.141Z,20.70
2018-01-12T04:38:07.357Z,19.50
2018-01-12T04:40:34.577Z,20.97
2018-01-12T04:43:01.797Z,20.33
2018-01-12T04:45:29.225Z,21.67
2018-01-12T04:47:56.448Z,21.20
2018-01-12T04:50:23.665Z,19.33
2018-01-12T04:52:50.893Z,21.73
2018-01-12T04:55:18.120Z,19.33
2018-01-12T04:57:45.345Z,21.97
2018-01-12T05:00:12.584Z,19.53
2018-01-12T05:02:39.819Z,20.47
2018-01-12T05:05:07.915Z,19.90
2018-01-12T05:07:35.141Z,19.67
2018-01-12T05:10:02.797Z,20.43
2018-01-12T05:12:30.022Z,19.60
2018-01-12T05:14:57.266Z,20.90
2018-01-12T05:17:24.513Z,20.40
2018-01-12T05:19:51.746Z,19.93
2018-01-12T05:22:18.978Z,20.73
2018-01-12T05:24:46.224Z,20.10
2018-01-12T05:27:13.466Z,21.60
2018-01-12T05:29:40.696Z,20.20
2018-01-12T05:32:08.165Z,21.23
2018-01-12T05:34:36.032Z,21.10
2018-01-12T05:37:03.292Z,20.60
2018-01-12T05:39:30.504Z,23.73
2018-01-12T05:41:57.741Z,20.30
2018-01-12T05:44:24.974Z,21.40
2018-01-12T05:46:52.204Z,22.23
2018-01-12T05:49:19.501Z,22.13
2018-01-12T05:51:47.343Z,22.33
2018-01-12T05:54:14.572Z,23.37
2018-01-12T05:56:41.881Z,22.33
2018-01-12T05:59:09.097Z,21.80
2018-01-12T06:01:41.877Z,22.50
2018-01-12T06:04:16.745Z,22.57
2018-01-12T06:06:43.977Z,21.40
2018-01-12T06:09:11.304Z,21.40
2018-01-12T06:11:38.549Z,24.93
2018-01-12T06:14:05.778Z,22.30
2018-01-12T06:16:32.994Z,23.87
2018-01-12T06:19:00.217Z,22.87
2018-01-12T06:21:27.428Z,24.20
2018-01-12T06:23:54.658Z,23.10
2018-01-12T06:26:21.899Z,24.70
2018-01-12T06:28:49.125Z,23.43
2018-01-12T06:31:16.344Z,22.23
2018-01-12T06:33:43.584Z,23.57
2018-01-12T06:36:10.801Z,23.67
2018-01-12T06:38:38.025Z,22.93
2018-01-12T06:41:05.240Z,23.17
2018-01-12T06:43:32.472Z,21.90
2018-01-12T06:46:00.337Z,21.97
2018-01-12T06:48:27.609Z,25.50
2018-01-12T06:50:54.842Z,21.93
2018-01-12T06:53:22.056Z,23.10
2018-01-12T06:55:49.280Z,21.37
2018-01-12T06:58:16.510Z,23.07
2018-01-12T07:00:43.724Z,23.27
2018-01-12T07:03:10.944Z,27.43
2018-01-12T07:05:39.154Z,21.77
2018-01-12T07:08:06.384Z,27.70
2018-01-12T07:10:33.605Z,25.17
2018-01-12T07:13:00.817Z,20.03
2018-01-12T07:15:28.043Z,24.13
2018-01-12T07:17:55.251Z,30.43
2018-01-12T07:20:28.134Z,25.10
2018-01-12T07:23:01.069Z,24.63
2018-01-12T07:25:28.729Z,22.23
2018-01-12T07:27:55.957Z,23.37
2018-01-12T07:30:23.179Z,23.43
2018-01-12T07:32:50.405Z,22.70
2018-01-12T07:35:17.633Z,28.80
2018-01-12T07:37:44.861Z,24.23
2018-01-12T07:40:12.096Z,26.17
2018-01-12T07:42:39.312Z,22.33
2018-01-12T07:45:06.551Z,23.37
2018-01-12T07:47:33.757Z,23.80
2018-01-12T07:50:01.206Z,23.37
2018-01-12T07:52:28.336Z,24.93
2018-01-12T07:54:55.610Z,22.90
2018-01-12T07:57:22.857Z,21.77
2018-01-12T07:59:50.073Z,23.53
2018-01-12T08:02:23.572Z,22.07
2018-01-12T08:04:50.792Z,23.60
2018-01-12T08:07:18.008Z,24.30
2018-01-12T08:09:45.232Z,24.27
2018-01-12T08:12:12.457Z,25.20
2018-01-12T08:14:39.674Z,23.93
2018-01-12T08:17:08.032Z,23.17
2018-01-12T08:19:35.772Z,23.50
2018-01-12T08:22:03.014Z,24.13
2018-01-12T08:24:30.262Z,23.90
2018-01-12T08:26:57.517Z,23.43
2018-01-12T08:29:24.819Z,26.60
2018-01-12T08:31:52.204Z,24.20
2018-01-12T08:34:19.772Z,25.93
2018-01-12T08:36:47.070Z,25.40
2018-01-12T08:39:14.367Z,24.07
2018-01-12T08:41:41.653Z,22.20
2018-01-12T08:44:08.967Z,22.90
2018-01-12T08:46:36.234Z,24.23
2018-01-12T08:49:03.529Z,21.77
2018-01-12T08:51:30.888Z,24.47
2018-01-12T08:53:58.137Z,24.37
2018-01-12T08:56:25.365Z,26.60
2018-01-12T08:58:52.592Z,23.60
2018-01-12T09:01:19.821Z,23.80
2018-01-12T09:03:47.053Z,24.70
2018-01-12T09:06:14.751Z,23.90
2018-01-12T09:08:42.009Z,21.83
2018-01-12T09:11:09.409Z,24.70
2018-01-12T09:13:42.116Z,24.80
2018-01-12T09:16:09.038Z,25.80
2018-01-12T09:18:41.736Z,22.27
2018-01-12T09:21:14.512Z,24.50
2018-01-12T09:23:41.400Z,23.83
2018-01-12T09:26:08.636Z,23.00
2018-01-12T09:28:35.881Z,20.67
2018-01-12T09:31:04.049Z,22.63
2018-01-12T09:33:31.300Z,23.40
2018-01-12T09:35:58.553Z,22.87
2018-01-12T09:38:40.321Z,26.10
2018-01-12T09:41:07.545Z,22.47
2018-01-12T09:43:34.767Z,21.40
2018-01-12T09:46:02.014Z,21.70
2018-01-12T09:48:30.430Z,22.80
2018-01-12T09:50:57.642Z,22.63
2018-01-12T09:53:24.866Z,21.87
2018-01-12T09:55:52.080Z,22.83
2018-01-12T09:58:19.312Z,22.40
2018-01-12T10:00:46.208Z,21.07
2018-01-12T10:03:13.428Z,22.60
2018-01-12T10:05:40.656Z,24.10
2018-01-12T10:08:13.330Z,21.50
2018-01-12T10:10:40.564Z,22.43
2018-01-12T10:13:07.779Z,21.63
2018-01-12T10:15:35.009Z,22.47
2018-01-12T10:18:01.910Z,22.57
2018-01-12T10:20:29.684Z,22.60
2018-01-12T10:22:56.931Z,22.70
2018-01-12T10:25:24.161Z,22.00
2018-01-12T10:27:51.403Z,22.10
2018-01-12T10:30:24.223Z,21.80
2018-01-12T10:32:57.042Z,21.00
2018-01-12T10:35:23.947Z,22.97
2018-01-12T10:37:51.161Z,24.23
2018-01-12T10:40:24.044Z,21.57
2018-01-12T10:42:51.256Z,22.13
2018-01-12T10:45:18.177Z,22.87
2018-01-12T10:47:57.909Z,23.03
2018-01-12T10:50:24.841Z,21.87
2018-01-12T10:52:52.058Z,22.10
2018-01-12T10:55:19.296Z,21.63
2018-01-12T10:57:46.523Z,21.10
2018-01-12T11:00:19.363Z,20.83
2018-01-12T11:02:46.592Z,19.93
2018-01-12T11:05:13.829Z,23.07
2018-01-12T11:07:41.055Z,20.00
2018-01-12T11:10:12.170Z,21.73
2018-01-12T11:12:39.410Z,21.10
2018-01-12T11:15:12.922Z,23.73
2018-01-12T11:17:41.095Z,21.87
2018-01-12T11:20:12.753Z,21.03
2018-01-12T11:22:39.978Z,21.50
2018-01-12T11:25:09.347Z,20.33
2018-01-12T11:27:37.168Z,23.37
2018-01-12T11:30:11.827Z,21.57
2018-01-12T11:32:39.045Z,22.70
2018-01-12T11:35:13.444Z,22.13
2018-01-12T11:37:40.665Z,21.00
2018-01-12T11:40:09.606Z,24.10
2018-01-12T11:42:36.832Z,23.17
2018-01-12T11:45:09.135Z,24.43
2018-01-12T11:47:36.384Z,25.90
2018-01-12T11:50:04.886Z,24.00
2018-01-12T11:52:34.551Z,21.47
2018-01-12T11:55:02.502Z,22.67
2018-01-12T11:57:30.007Z,20.60
2018-01-12T11:59:57.228Z,23.03
2018-01-12T12:02:24.267Z,21.70
2018-01-12T12:04:52.164Z,20.83
2018-01-12T12:07:19.381Z,22.20
2018-01-12T12:09:46.627Z,23.80
2018-01-12T12:12:13.857Z,22.67
2018-01-12T12:14:41.082Z,21.57
2018-01-12T12:17:08.345Z,21.03
2018-01-12T12:19:35.577Z,22.00
2018-01-12T12:22:02.792Z,20.93
2018-01-12T12:24:30.374Z,22.83
2018-01-12T12:26:58.001Z,20.53
2018-01-12T12:29:25.838Z,21.27
2018-01-12T12:31:53.312Z,22.77
2018-01-12T12:34:20.581Z,23.97
2018-01-12T12:36:47.804Z,83.47
2018-01-12T12:39:15.016Z,23.07
2018-01-12T12:41:42.268Z,22.00
2018-01-12T12:44:09.485Z,22.57
2018-01-12T12:46:36.704Z,20.40
2018-01-12T12:49:03.932Z,22.47
2018-01-12T12:51:31.165Z,22.40
2018-01-12T12:53:58.392Z,21.10
2018-01-12T12:56:25.945Z,22.30
2018-01-12T12:58:53.161Z,21.30
2018-01-12T13:01:20.196Z,21.53
2018-01-12T13:03:47.677Z,23.47
2018-01-12T13:06:14.904Z,22.60
2018-01-12T13:08:42.168Z,30.70
2018-01-12T13:11:09.661Z,24.90
2018-01-12T13:13:36.875Z,22.70
2018-01-12T13:16:04.116Z,23.47
2018-01-12T13:18:31.337Z,25.00
2018-01-12T13:20:58.556Z,22.30
2018-01-12T13:23:25.776Z,23.13
2018-01-12T13:25:53.000Z,22.57
2018-01-12T13:28:20.808Z,24.03
2018-01-12T13:30:48.033Z,21.87
2018-01-12T13:33:15.297Z,23.90
2018-01-12T13:35:43.371Z,24.03
2018-01-12T13:38:10.596Z,24.07
2018-01-12T13:40:37.835Z,23.40
2018-01-12T13:43:05.054Z,25.33
2018-01-12T13:45:32.282Z,25.13
2018-01-12T13:47:59.508Z,21.97
2018-01-12T13:50:26.735Z,24.03
2018-01-12T13:52:53.966Z,25.93
2018-01-12T13:55:21.184Z,27.27
2018-01-12T13:57:48.421Z,22.20
2018-01-12T14:00:15.658Z,24.20
2018-01-12T14:02:42.877Z,21.37
2018-01-12T14:05:10.196Z,23.00
2018-01-12T14:07:37.441Z,22.50
2018-01-12T14:10:06.048Z,22.07
2018-01-12T14:12:33.309Z,21.83
2018-01-12T14:15:00.534Z,23.10
2018-01-12T14:17:27.784Z,23.37
2018-01-12T14:19:55.020Z,25.90
2018-01-12T14:22:22.396Z,25.20
2018-01-12T14:24:49.634Z,26.43
2018-01-12T14:27:16.852Z,27.23
2018-01-12T14:29:44.092Z,27.33
2018-01-12T14:32:11.309Z,25.20
2018-01-12T14:34:38.541Z,24.97
2018-01-12T14:37:05.762Z,27.07
2018-01-12T14:39:32.986Z,26.00
2018-01-12T14:42:00.244Z,28.77
2018-01-12T14:44:27.475Z,25.50
2018-01-12T14:46:54.971Z,28.03
2018-01-12T14:49:23.311Z,25.97
2018-01-12T14:51:50.536Z,25.73
2018-01-12T14:54:18.136Z,25.80
2018-01-12T14:56:45.356Z,27.10
2018-01-12T14:59:12.592Z,27.30
2018-01-12T15:01:39.819Z,24.77
2018-01-12T15:04:07.050Z,25.47
2018-01-12T15:06:35.040Z,26.50
2018-01-12T15:09:02.449Z,24.20
2018-01-12T15:11:29.679Z,27.10
2018-01-12T15:13:56.918Z,23.40
2018-01-12T15:16:23.968Z,23.33
2018-01-12T15:18:50.861Z,22.60
2018-01-12T15:21:18.653Z,21.63
2018-01-12T15:23:45.889Z,23.20
2018-01-12T15:26:13.108Z,20.93
2018-01-12T15:28:40.377Z,23.20
2018-01-12T15:31:07.773Z,23.70
2018-01-12T15:33:35.004Z,21.30
2018-01-12T15:36:02.118Z,22.70
2018-01-12T15:38:29.333Z,20.10
2018-01-12T15:40:56.584Z,22.00
2018-01-12T15:43:23.806Z,22.40
2018-01-12T15:45:51.558Z,23.30
2018-01-12T15:48:18.933Z,22.90
2018-01-12T15:50:46.191Z,22.50
2018-01-12T15:53:13.690Z,23.47
2018-01-12T15:55:40.913Z,24.60
2018-01-12T15:58:08.966Z,23.83
2018-01-12T16:00:36.196Z,22.10
2018-01-12T16:03:03.427Z,24.83
2018-01-12T16:05:30.666Z,20.83
2018-01-12T16:07:57.894Z,22.10
2018-01-12T16:10:25.176Z,22.90
2018-01-12T16:12:52.410Z,24.77
2018-01-12T16:15:19.658Z,25.50
2018-01-12T16:17:46.884Z,23.90
2018-01-12T16:20:14.148Z,24.40
2018-01-12T16:22:41.369Z,23.80
2018-01-12T16:25:08.606Z,24.43
2018-01-12T16:27:35.828Z,24.70
2018-01-12T16:30:03.102Z,25.37
2018-01-12T16:32:30.365Z,25.70
2018-01-12T16:34:57.604Z,25.43
2018-01-12T16:37:24.840Z,25.03
2018-01-12T16:39:52.089Z,25.80
2018-01-12T16:42:19.328Z,23.50
2018-01-12T16:44:48.152Z,26.60
2018-01-12T16:47:15.376Z,25.73
2018-01-12T16:49:42.651Z,30.03
2018-01-12T16:52:10.051Z,27.33
2018-01-12T16:54:37.880Z,26.33
2018-01-12T16:57:05.101Z,26.23
2018-01-12T16:59:32.528Z,28.07
2018-01-12T17:01:59.747Z,26.60
2018-01-12T17:04:26.957Z,27.10
2018-01-12T17:06:54.176Z,25.90
2018-01-12T17:09:21.402Z,26.30
2018-01-12T17:11:49.735Z,26.60
2018-01-12T17:14:16.982Z,27.37
2018-01-12T17:16:44.236Z,26.83
2018-01-12T17:19:11.500Z,25.80
2018-01-12T17:21:38.760Z,27.50
2018-01-12T17:24:05.989Z,27.70
2018-01-12T17:26:33.212Z,25.90
2018-01-12T17:29:00.429Z,27.20
2018-01-12T17:31:27.672Z,28.27
2018-01-12T17:33:54.931Z,27.80
2018-01-12T17:36:22.155Z,29.97
2018-01-12T17:38:49.385Z,27.20
2018-01-12T17:41:16.609Z,28.50
2018-01-12T17:43:44.451Z,26.03
2018-01-12T17:46:11.681Z,27.00
2018-01-12T17:48:38.927Z,26.40
2018-01-12T17:51:06.152Z,25.37
2018-01-12T17:53:33.374Z,28.97
2018-01-12T17:56:00.600Z,29.53
2018-01-12T17:58:27.832Z,31.97
2018-01-12T18:00:55.077Z,29.77
2018-01-12T18:03:22.328Z,31.23
2018-01-12T18:05:49.963Z,32.20
2018-01-12T18:08:17.196Z,31.30
2018-01-12T18:10:44.420Z,31.43
2018-01-12T18:13:11.496Z,31.93
2018-01-12T18:15:38.729Z,30.93
2018-01-12T18:18:07.702Z,31.80
2018-01-12T18:20:34.940Z,33.93
2018-01-12T18:23:02.156Z,31.70
2018-01-12T18:25:29.394Z,30.33
2018-01-12T18:27:56.283Z,29.30
2018-01-12T18:30:24.377Z,31.00
2018-01-12T18:32:51.625Z,28.83
2018-01-12T18:35:18.872Z,30.27
2018-01-12T18:37:46.140Z,29.60
2018-01-12T18:40:13.197Z,31.87
2018-01-12T18:42:40.444Z,28.40
2018-01-12T18:45:07.734Z,31.40
2018-01-12T18:47:34.962Z,28.43
2018-01-12T18:50:02.684Z,31.43
2018-01-12T18:52:29.909Z,28.53
2018-01-12T18:54:57.740Z,30.37
2018-01-12T18:57:24.960Z,28.77
2018-01-12T18:59:52.177Z,30.73
2018-01-12T19:02:19.400Z,30.90
2018-01-12T19:04:46.641Z,30.60
2018-01-12T19:07:13.885Z,31.60
2018-01-12T19:09:41.153Z,34.17
2018-01-12T19:12:08.396Z,32.60
2018-01-12T19:14:35.672Z,33.87
2018-01-12T19:17:02.899Z,35.67
2018-01-12T19:19:30.118Z,33.27
2018-01-12T19:21:57.341Z,33.90
2018-01-12T19:24:24.548Z,33.67
2018-01-12T19:26:51.787Z,34.63
2018-01-12T19:29:19.031Z,34.50
2018-01-12T19:31:46.264Z,31.10
2018-01-12T19:34:13.496Z,33.00
2018-01-12T19:36:40.724Z,32.47
2018-01-12T19:39:07.944Z,33.00
2018-01-12T19:41:36.005Z,36.53
2018-01-12T19:44:03.252Z,33.87
2018-01-12T19:46:30.461Z,33.07
2018-01-12T19:48:57.698Z,33.90
2018-01-12T19:51:24.945Z,33.27
2018-01-12T19:53:53.049Z,32.23
2018-01-12T19:56:20.273Z,34.33
2018-01-12T19:58:47.497Z,32.13
2018-01-12T20:01:14.708Z,32.60
2018-01-12T20:03:42.330Z,33.37
2018-01-12T20:06:09.761Z,32.87
2018-01-12T20:08:36.993Z,31.20
2018-01-12T20:11:04.216Z,29.00
2018-01-12T20:13:31.446Z,32.53
2018-01-12T20:15:58.680Z,30.50
2018-01-12T20:18:25.893Z,31.70
2018-01-12T20:20:53.149Z,29.60
2018-01-12T20:23:20.401Z,34.70
2018-01-12T20:25:47.629Z,31.93
2018-01-12T20:28:14.918Z,33.87
2018-01-12T20:30:42.129Z,30.30
2018-01-12T20:33:09.340Z,33.03
2018-01-12T20:35:36.589Z,35.10
2018-01-12T20:38:03.844Z,33.83
2018-01-12T20:40:31.138Z,32.63
2018-01-12T20:42:58.353Z,32.30
2018-01-12T20:45:26.513Z,33.00
2018-01-12T20:47:53.735Z,31.27
2018-01-12T20:50:20.992Z,32.63
2018-01-12T20:52:48.216Z,33.20
2018-01-12T20:55:15.456Z,37.20
2018-01-12T20:57:42.671Z,31.07
2018-01-12T21:00:09.899Z,31.93
2018-01-12T21:02:37.133Z,32.63
2018-01-12T21:05:04.509Z,31.83
2018-01-12T21:07:31.732Z,34.53
2018-01-12T21:09:58.980Z,28.70
2018-01-12T21:12:26.229Z,30.67
2018-01-12T21:14:53.661Z,30.40
2018-01-12T21:17:20.877Z,28.80
2018-01-12T21:19:48.104Z,30.83
2018-01-12T21:22:15.841Z,31.00
2018-01-12T21:24:43.638Z,26.67
2018-01-12T21:27:10.869Z,26.90
2018-01-12T21:29:38.116Z,29.90
2018-01-12T21:32:05.339Z,27.37
2018-01-12T21:34:32.557Z,29.40
2018-01-12T21:37:01.309Z,27.50
2018-01-12T21:39:31.676Z,28.43
2018-01-12T21:41:58.918Z,27.83
2018-01-12T21:44:26.140Z,29.10
2018-01-12T21:46:53.370Z,27.70
2018-01-12T21:49:20.608Z,29.17
2018-01-12T21:51:47.840Z,27.20
2018-01-12T21:54:14.790Z,30.70
2018-01-12T21:56:42.717Z,32.17
2018-01-12T21:59:09.936Z,28.20
2018-01-12T22:01:37.883Z,28.67
2018-01-12T22:04:05.104Z,29.60
2018-01-12T22:06:32.325Z,29.93
2018-01-12T22:08:59.637Z,28.87
2018-01-12T22:11:26.850Z,29.57
2018-01-12T22:13:54.066Z,30.40
2018-01-12T22:16:20.988Z,31.13
2018-01-12T22:18:48.227Z,28.27
2018-01-12T22:21:15.463Z,28.13
2018-01-12T22:23:42.677Z,29.77
2018-01-12T22:26:10.753Z,33.20
2018-01-12T22:28:37.980Z,31.67
2018-01-12T22:31:05.209Z,32.20
2018-01-12T22:33:32.424Z,32.77
2018-01-12T22:35:59.637Z,32.07
2018-01-12T22:38:26.856Z,29.33
2018-01-12T22:40:54.546Z,31.63
2018-01-12T22:43:21.784Z,28.30
2018-01-12T22:45:49.024Z,29.80
2018-01-12T22:48:16.254Z,30.77
2018-01-12T22:50:43.588Z,32.00
2018-01-12T22:53:11.352Z,30.27
2018-01-12T22:55:38.584Z,30.20
2018-01-12T22:58:05.822Z,32.83
2018-01-12T23:00:33.064Z,30.33
2018-01-12T23:03:00.298Z,30.90
2018-01-12T23:05:27.518Z,31.40
2018-01-12T23:07:54.749Z,31.53
2018-01-12T23:10:21.964Z,32.63
2018-01-12T23:12:49.185Z,30.73
2018-01-12T23:15:16.400Z,31.23
2018-01-12T23:17:43.637Z,31.80
2018-01-12T23:20:10.861Z,30.50
2018-01-12T23:22:38.114Z,28.00
2018-01-12T23:25:06.277Z,29.07
2018-01-12T23:27:33.513Z,28.70
2018-01-12T23:30:00.748Z,30.37
2018-01-12T23:32:27.978Z,31.57
2018-01-12T23:34:55.208Z,29.77
2018-01-12T23:37:22.450Z,31.20
2018-01-12T23:39:49.677Z,27.77
2018-01-12T23:42:16.911Z,30.17
2018-01-12T23:44:44.952Z,29.80
2018-01-12T23:47:12.184Z,28.47
2018-01-12T23:49:39.412Z,28.63
2018-01-12T23:52:06.638Z,32.60
2018-01-12T23:54:33.869Z,30.93
2018-01-12T23:57:01.088Z,31.80
2018-01-12T23:59:28.337Z,32.37
